Pont-Viau, Canada
Current Conditions -  °F | °C
As of 1:32 PM on Sunday 23 Nov 2014 (Local Time) from CYUL Reporting Station
Haze Haze  
Wind Chill: 39°   Ceiling: 300
Heat Index: 43°   Visibility: 1.2mi
Dew Point: 41°   Wind: 6mph
Humidity: 93%   Direction: 190°S
Pressure: 30.03"   Gusts: NA
Location:  45.55°N, 73.67°W
Report Text: CYUL 231832Z 19005KT 1 1/4SM BR OVC003 06/05 A3003 RMK ST8 SLP170
Loading
Personal Weather Stations






























Interactive Weather Map New forecast layout! Learn more

10-Day Weather Forecast

Advertisements
Track Severe Weather on mobile